sensor_id;sensor_type;location;lat;lon;timestamp;P1;durP1;ratioP1;P2;durP2;ratioP2
10162;SDS011;5123;52.556;13.384;2023-05-23T00:00:56;5.30;;;4.50;;
10162;SDS011;5123;52.556;13.384;2023-05-23T00:03:30;8.57;;;4.30;;
10162;SDS011;5123;52.556;13.384;2023-05-23T00:06:04;7.20;;;4.30;;
10162;SDS011;5123;52.556;13.384;2023-05-23T00:08:41;4.57;;;4.03;;
10162;SDS011;5123;52.556;13.384;2023-05-23T00:11:14;6.57;;;4.50;;
10162;SDS011;5123;52.556;13.384;2023-05-23T00:13:46;8.67;;;4.60;;
10162;SDS011;5123;52.556;13.384;2023-05-23T00:16:21;6.13;;;5.03;;
10162;SDS011;5123;52.556;13.384;2023-05-23T00:18:54;8.33;;;5.00;;
10162;SDS011;5123;52.556;13.384;2023-05-23T00:21:28;5.97;;;4.60;;
10162;SDS011;5123;52.556;13.384;2023-05-23T00:24:02;6.50;;;4.50;;
10162;SDS011;5123;52.556;13.384;2023-05-23T00:26:35;7.53;;;5.13;;
10162;SDS011;5123;52.556;13.384;2023-05-23T00:29:09;7.13;;;5.33;;
10162;SDS011;5123;52.556;13.384;2023-05-23T00:31:46;6.43;;;4.77;;
10162;SDS011;5123;52.556;13.384;2023-05-23T00:34:19;5.90;;;4.47;;
10162;SDS011;5123;52.556;13.384;2023-05-23T00:36:53;6.43;;;4.63;;
10162;SDS011;5123;52.556;13.384;2023-05-23T00:39:28;7.50;;;5.00;;
10162;SDS011;5123;52.556;13.384;2023-05-23T00:42:02;5.70;;;4.50;;
10162;SDS011;5123;52.556;13.384;2023-05-23T00:44:38;6.27;;;4.50;;
10162;SDS011;5123;52.556;13.384;2023-05-23T00:47:14;7.27;;;4.67;;
10162;SDS011;5123;52.556;13.384;2023-05-23T00:49:47;7.77;;;4.30;;
10162;SDS011;5123;52.556;13.384;2023-05-23T00:52:19;5.87;;;4.37;;
10162;SDS011;5123;52.556;13.384;2023-05-23T00:54:53;6.73;;;4.80;;
10162;SDS011;5123;52.556;13.384;2023-05-23T00:57:26;8.40;;;4.63;;
10162;SDS011;5123;52.556;13.384;2023-05-23T00:59:59;8.57;;;4.67;;
10162;SDS011;5123;52.556;13.384;2023-05-23T01:02:32;5.77;;;4.50;;
10162;SDS011;5123;52.556;13.384;2023-05-23T01:05:07;4.73;;;4.23;;
10162;SDS011;5123;52.556;13.384;2023-05-23T01:07:40;7.17;;;5.10;;
10162;SDS011;5123;52.556;13.384;2023-05-23T01:10:15;7.60;;;4.57;;
10162;SDS011;5123;52.556;13.384;2023-05-23T01:12:50;4.83;;;4.30;;
10162;SDS011;5123;52.556;13.384;2023-05-23T01:15:27;6.93;;;4.47;;
10162;SDS011;5123;52.556;13.384;2023-05-23T01:18:05;6.57;;;4.47;;
10162;SDS011;5123;52.556;13.384;2023-05-23T01:20:40;5.90;;;4.37;;
10162;SDS011;5123;52.556;13.384;2023-05-23T01:26:20;5.30;;;4.57;;
10162;SDS011;5123;52.556;13.384;2023-05-23T01:28:58;8.13;;;5.03;;
10162;SDS011;5123;52.556;13.384;2023-05-23T01:31:36;5.93;;;4.73;;
10162;SDS011;5123;52.556;13.384;2023-05-23T01:34:11;7.77;;;4.63;;
10162;SDS011;5123;52.556;13.384;2023-05-23T01:36:44;7.80;;;4.53;;
10162;SDS011;5123;52.556;13.384;2023-05-23T01:39:17;5.13;;;4.63;;
10162;SDS011;5123;52.556;13.384;2023-05-23T01:41:54;5.63;;;4.80;;
10162;SDS011;5123;52.556;13.384;2023-05-23T01:44:29;5.47;;;4.70;;
10162;SDS011;5123;52.556;13.384;2023-05-23T01:47:02;13.87;;;4.47;;
10162;SDS011;5123;52.556;13.384;2023-05-23T01:49:35;6.97;;;4.53;;
10162;SDS011;5123;52.556;13.384;2023-05-23T01:52:08;7.07;;;4.47;;
10162;SDS011;5123;52.556;13.384;2023-05-23T01:54:44;9.13;;;5.10;;
10162;SDS011;5123;52.556;13.384;2023-05-23T01:57:21;6.57;;;4.50;;
10162;SDS011;5123;52.556;13.384;2023-05-23T02:00:00;5.73;;;4.83;;
10162;SDS011;5123;52.556;13.384;2023-05-23T02:02:33;5.70;;;4.50;;
10162;SDS011;5123;52.556;13.384;2023-05-23T02:05:06;6.03;;;5.03;;
10162;SDS011;5123;52.556;13.384;2023-05-23T02:07:39;7.20;;;5.10;;
10162;SDS011;5123;52.556;13.384;2023-05-23T02:10:12;6.77;;;5.03;;
10162;SDS011;5123;52.556;13.384;2023-05-23T02:12:44;6.03;;;4.43;;
10162;SDS011;5123;52.556;13.384;2023-05-23T02:15:18;5.63;;;4.87;;
10162;SDS011;5123;52.556;13.384;2023-05-23T02:17:51;7.67;;;4.77;;
10162;SDS011;5123;52.556;13.384;2023-05-23T02:20:24;4.67;;;4.27;;
10162;SDS011;5123;52.556;13.384;2023-05-23T02:22:57;6.67;;;5.00;;
10162;SDS011;5123;52.556;13.384;2023-05-23T02:25:29;7.20;;;5.20;;
10162;SDS011;5123;52.556;13.384;2023-05-23T02:28:03;7.10;;;5.50;;
10162;SDS011;5123;52.556;13.384;2023-05-23T02:30:51;6.77;;;5.17;;
10162;SDS011;5123;52.556;13.384;2023-05-23T02:33:27;5.20;;;4.60;;
10162;SDS011;5123;52.556;13.384;2023-05-23T02:36:01;7.23;;;5.23;;
10162;SDS011;5123;52.556;13.384;2023-05-23T02:38:34;8.23;;;5.37;;
10162;SDS011;5123;52.556;13.384;2023-05-23T02:41:06;5.83;;;4.70;;
10162;SDS011;5123;52.556;13.384;2023-05-23T02:43:43;10.07;;;4.70;;
10162;SDS011;5123;52.556;13.384;2023-05-23T02:46:18;7.10;;;5.23;;
10162;SDS011;5123;52.556;13.384;2023-05-23T02:48:51;6.40;;;5.10;;
10162;SDS011;5123;52.556;13.384;2023-05-23T02:51:23;8.13;;;5.30;;
10162;SDS011;5123;52.556;13.384;2023-05-23T02:53:57;8.13;;;5.87;;
10162;SDS011;5123;52.556;13.384;2023-05-23T02:56:30;7.60;;;5.43;;
10162;SDS011;5123;52.556;13.384;2023-05-23T02:59:02;7.13;;;5.53;;
10162;SDS011;5123;52.556;13.384;2023-05-23T03:01:36;5.57;;;4.93;;
10162;SDS011;5123;52.556;13.384;2023-05-23T03:04:09;5.93;;;5.20;;
10162;SDS011;5123;52.556;13.384;2023-05-23T03:06:43;7.30;;;5.37;;
10162;SDS011;5123;52.556;13.384;2023-05-23T03:09:17;6.17;;;5.13;;
10162;SDS011;5123;52.556;13.384;2023-05-23T03:11:50;7.40;;;5.40;;
10162;SDS011;5123;52.556;13.384;2023-05-23T03:14:23;10.13;;;6.30;;
10162;SDS011;5123;52.556;13.384;2023-05-23T03:16:57;7.40;;;5.57;;
10162;SDS011;5123;52.556;13.384;2023-05-23T03:19:30;8.33;;;5.23;;
10162;SDS011;5123;52.556;13.384;2023-05-23T03:22:06;8.17;;;5.40;;
10162;SDS011;5123;52.556;13.384;2023-05-23T03:24:39;6.30;;;4.77;;
10162;SDS011;5123;52.556;13.384;2023-05-23T03:27:11;7.10;;;5.57;;
10162;SDS011;5123;52.556;13.384;2023-05-23T03:29:47;7.97;;;5.37;;
10162;SDS011;5123;52.556;13.384;2023-05-23T03:32:22;7.53;;;5.90;;
10162;SDS011;5123;52.556;13.384;2023-05-23T03:34:54;8.07;;;5.80;;
10162;SDS011;5123;52.556;13.384;2023-05-23T03:37:27;7.10;;;5.70;;
10162;SDS011;5123;52.556;13.384;2023-05-23T03:40:00;8.33;;;5.67;;
10162;SDS011;5123;52.556;13.384;2023-05-23T03:42:32;6.87;;;5.60;;
10162;SDS011;5123;52.556;13.384;2023-05-23T03:45:05;8.97;;;6.20;;
10162;SDS011;5123;52.556;13.384;2023-05-23T03:47:40;8.63;;;6.03;;
10162;SDS011;5123;52.556;13.384;2023-05-23T03:50:13;7.63;;;5.80;;
10162;SDS011;5123;52.556;13.384;2023-05-23T03:52:46;8.63;;;5.87;;
10162;SDS011;5123;52.556;13.384;2023-05-23T03:55:19;8.33;;;5.97;;
10162;SDS011;5123;52.556;13.384;2023-05-23T03:57:52;7.60;;;5.40;;
10162;SDS011;5123;52.556;13.384;2023-05-23T04:00:26;7.20;;;5.20;;
10162;SDS011;5123;52.556;13.384;2023-05-23T04:03:00;6.30;;;5.37;;
10162;SDS011;5123;52.556;13.384;2023-05-23T04:05:33;8.93;;;5.80;;
10162;SDS011;5123;52.556;13.384;2023-05-23T04:08:05;8.03;;;6.20;;
10162;SDS011;5123;52.556;13.384;2023-05-23T04:10:38;8.50;;;6.30;;
10162;SDS011;5123;52.556;13.384;2023-05-23T04:13:11;5.77;;;5.17;;
10162;SDS011;5123;52.556;13.384;2023-05-23T04:15:47;7.97;;;5.50;;
10162;SDS011;5123;52.556;13.384;2023-05-23T04:18:21;7.37;;;5.43;;
10162;SDS011;5123;52.556;13.384;2023-05-23T04:20:58;8.70;;;6.00;;
10162;SDS011;5123;52.556;13.384;2023-05-23T04:23:31;9.17;;;6.23;;
10162;SDS011;5123;52.556;13.384;2023-05-23T04:26:04;7.23;;;5.97;;
10162;SDS011;5123;52.556;13.384;2023-05-23T04:28:37;6.83;;;5.73;;
10162;SDS011;5123;52.556;13.384;2023-05-23T04:31:10;12.37;;;6.40;;
10162;SDS011;5123;52.556;13.384;2023-05-23T04:33:44;8.50;;;6.03;;
10162;SDS011;5123;52.556;13.384;2023-05-23T04:36:17;7.50;;;6.00;;
10162;SDS011;5123;52.556;13.384;2023-05-23T04:38:49;6.77;;;5.90;;
10162;SDS011;5123;52.556;13.384;2023-05-23T04:41:22;12.60;;;7.87;;
10162;SDS011;5123;52.556;13.384;2023-05-23T04:43:55;7.10;;;6.30;;
10162;SDS011;5123;52.556;13.384;2023-05-23T04:46:28;6.70;;;5.93;;
10162;SDS011;5123;52.556;13.384;2023-05-23T04:49:02;8.87;;;6.40;;
10162;SDS011;5123;52.556;13.384;2023-05-23T04:51:35;9.50;;;6.07;;
10162;SDS011;5123;52.556;13.384;2023-05-23T04:54:10;6.43;;;5.83;;
10162;SDS011;5123;52.556;13.384;2023-05-23T04:56:43;7.20;;;6.30;;
10162;SDS011;5123;52.556;13.384;2023-05-23T04:59:16;7.87;;;6.00;;
10162;SDS011;5123;52.556;13.384;2023-05-23T05:01:48;8.23;;;6.70;;
10162;SDS011;5123;52.556;13.384;2023-05-23T05:04:22;11.07;;;5.70;;
10162;SDS011;5123;52.556;13.384;2023-05-23T05:06:55;8.43;;;6.07;;
10162;SDS011;5123;52.556;13.384;2023-05-23T05:09:28;9.23;;;6.10;;
10162;SDS011;5123;52.556;13.384;2023-05-23T05:12:01;8.40;;;6.87;;
10162;SDS011;5123;52.556;13.384;2023-05-23T05:14:34;8.23;;;6.13;;
10162;SDS011;5123;52.556;13.384;2023-05-23T05:17:06;7.37;;;6.60;;
10162;SDS011;5123;52.556;13.384;2023-05-23T05:19:41;9.17;;;6.73;;
10162;SDS011;5123;52.556;13.384;2023-05-23T05:22:13;10.30;;;5.83;;
10162;SDS011;5123;52.556;13.384;2023-05-23T05:24:46;8.80;;;6.47;;
10162;SDS011;5123;52.556;13.384;2023-05-23T05:27:19;8.50;;;7.00;;
10162;SDS011;5123;52.556;13.384;2023-05-23T05:29:52;11.50;;;6.60;;
10162;SDS011;5123;52.556;13.384;2023-05-23T05:32:27;9.60;;;6.60;;
10162;SDS011;5123;52.556;13.384;2023-05-23T05:35:03;11.37;;;6.67;;
10162;SDS011;5123;52.556;13.384;2023-05-23T05:37:38;10.97;;;6.10;;
10162;SDS011;5123;52.556;13.384;2023-05-23T05:40:10;8.03;;;6.60;;
10162;SDS011;5123;52.556;13.384;2023-05-23T05:42:45;9.73;;;6.03;;
10162;SDS011;5123;52.556;13.384;2023-05-23T05:45:18;7.30;;;5.73;;
10162;SDS011;5123;52.556;13.384;2023-05-23T05:47:52;10.73;;;6.40;;
10162;SDS011;5123;52.556;13.384;2023-05-23T05:50:26;8.50;;;6.57;;
10162;SDS011;5123;52.556;13.384;2023-05-23T05:52:59;7.97;;;6.30;;
10162;SDS011;5123;52.556;13.384;2023-05-23T05:55:32;7.83;;;6.10;;
10162;SDS011;5123;52.556;13.384;2023-05-23T05:58:04;10.20;;;5.93;;
10162;SDS011;5123;52.556;13.384;2023-05-23T06:00:37;8.63;;;5.67;;
10162;SDS011;5123;52.556;13.384;2023-05-23T06:03:13;6.87;;;6.00;;
10162;SDS011;5123;52.556;13.384;2023-05-23T06:05:47;11.30;;;6.50;;
10162;SDS011;5123;52.556;13.384;2023-05-23T06:08:20;11.00;;;5.77;;
10162;SDS011;5123;52.556;13.384;2023-05-23T06:10:53;7.23;;;6.07;;
10162;SDS011;5123;52.556;13.384;2023-05-23T06:13:27;10.00;;;6.20;;
10162;SDS011;5123;52.556;13.384;2023-05-23T06:16:00;12.43;;;6.27;;
10162;SDS011;5123;52.556;13.384;2023-05-23T06:18:32;6.73;;;6.00;;
10162;SDS011;5123;52.556;13.384;2023-05-23T06:21:07;7.90;;;6.00;;
10162;SDS011;5123;52.556;13.384;2023-05-23T06:23:40;12.00;;;5.57;;
10162;SDS011;5123;52.556;13.384;2023-05-23T06:26:13;8.13;;;5.70;;
10162;SDS011;5123;52.556;13.384;2023-05-23T06:28:46;8.07;;;6.00;;
10162;SDS011;5123;52.556;13.384;2023-05-23T06:31:18;10.23;;;6.80;;
10162;SDS011;5123;52.556;13.384;2023-05-23T06:33:51;13.73;;;6.50;;
10162;SDS011;5123;52.556;13.384;2023-05-23T06:36:28;15.60;;;6.90;;
10162;SDS011;5123;52.556;13.384;2023-05-23T06:39:02;10.57;;;6.40;;
10162;SDS011;5123;52.556;13.384;2023-05-23T06:41:34;11.83;;;6.80;;
10162;SDS011;5123;52.556;13.384;2023-05-23T06:44:07;11.73;;;6.73;;
10162;SDS011;5123;52.556;13.384;2023-05-23T06:46:41;10.33;;;6.23;;
10162;SDS011;5123;52.556;13.384;2023-05-23T06:49:14;16.87;;;7.17;;
10162;SDS011;5123;52.556;13.384;2023-05-23T06:51:48;20.50;;;8.07;;
10162;SDS011;5123;52.556;13.384;2023-05-23T06:54:21;16.77;;;7.37;;
10162;SDS011;5123;52.556;13.384;2023-05-23T06:56:53;13.20;;;6.93;;
10162;SDS011;5123;52.556;13.384;2023-05-23T06:59:26;11.97;;;6.63;;
10162;SDS011;5123;52.556;13.384;2023-05-23T07:02:02;9.47;;;6.77;;
10162;SDS011;5123;52.556;13.384;2023-05-23T07:04:35;15.93;;;6.97;;
10162;SDS011;5123;52.556;13.384;2023-05-23T07:07:09;12.80;;;6.33;;
10162;SDS011;5123;52.556;13.384;2023-05-23T07:09:42;8.57;;;6.67;;
10162;SDS011;5123;52.556;13.384;2023-05-23T07:12:15;10.40;;;7.33;;
10162;SDS011;5123;52.556;13.384;2023-05-23T07:14:49;11.07;;;6.50;;
10162;SDS011;5123;52.556;13.384;2023-05-23T07:17:22;11.20;;;7.07;;
10162;SDS011;5123;52.556;13.384;2023-05-23T07:19:54;14.90;;;6.80;;
10162;SDS011;5123;52.556;13.384;2023-05-23T07:22:29;10.63;;;7.03;;
10162;SDS011;5123;52.556;13.384;2023-05-23T07:25:02;8.93;;;6.67;;
10162;SDS011;5123;52.556;13.384;2023-05-23T07:27:35;8.30;;;6.50;;
10162;SDS011;5123;52.556;13.384;2023-05-23T07:30:08;9.00;;;7.20;;
10162;SDS011;5123;52.556;13.384;2023-05-23T07:32:42;10.47;;;6.93;;
10162;SDS011;5123;52.556;13.384;2023-05-23T07:35:15;11.83;;;7.23;;
10162;SDS011;5123;52.556;13.384;2023-05-23T07:37:49;12.33;;;6.87;;
10162;SDS011;5123;52.556;13.384;2023-05-23T07:40:22;8.90;;;6.33;;
10162;SDS011;5123;52.556;13.384;2023-05-23T07:42:55;8.43;;;6.67;;
10162;SDS011;5123;52.556;13.384;2023-05-23T07:45:28;10.33;;;6.37;;
10162;SDS011;5123;52.556;13.384;2023-05-23T07:48:00;7.70;;;6.43;;
10162;SDS011;5123;52.556;13.384;2023-05-23T07:50:33;7.83;;;6.97;;
10162;SDS011;5123;52.556;13.384;2023-05-23T07:53:07;8.00;;;5.80;;
10162;SDS011;5123;52.556;13.384;2023-05-23T07:55:40;8.77;;;6.33;;
10162;SDS011;5123;52.556;13.384;2023-05-23T07:58:13;12.67;;;6.43;;
10162;SDS011;5123;52.556;13.384;2023-05-23T08:00:45;7.87;;;6.73;;
10162;SDS011;5123;52.556;13.384;2023-05-23T08:03:22;11.93;;;6.47;;
10162;SDS011;5123;52.556;13.384;2023-05-23T08:05:54;19.93;;;6.50;;
10162;SDS011;5123;52.556;13.384;2023-05-23T08:08:29;6.80;;;6.03;;
10162;SDS011;5123;52.556;13.384;2023-05-23T08:11:02;9.07;;;6.80;;
10162;SDS011;5123;52.556;13.384;2023-05-23T08:13:34;11.53;;;6.20;;
10162;SDS011;5123;52.556;13.384;2023-05-23T08:16:07;10.13;;;6.17;;
10162;SDS011;5123;52.556;13.384;2023-05-23T08:18:40;7.27;;;5.80;;
10162;SDS011;5123;52.556;13.384;2023-05-23T08:21:13;11.20;;;6.47;;
10162;SDS011;5123;52.556;13.384;2023-05-23T08:23:47;11.37;;;6.40;;
10162;SDS011;5123;52.556;13.384;2023-05-23T08:26:20;8.20;;;6.43;;
10162;SDS011;5123;52.556;13.384;2023-05-23T08:28:53;10.47;;;6.47;;
10162;SDS011;5123;52.556;13.384;2023-05-23T08:31:26;7.43;;;6.13;;
10162;SDS011;5123;52.556;13.384;2023-05-23T08:34:00;7.60;;;6.37;;
10162;SDS011;5123;52.556;13.384;2023-05-23T08:36:32;13.70;;;6.37;;
10162;SDS011;5123;52.556;13.384;2023-05-23T08:39:08;6.70;;;6.07;;
10162;SDS011;5123;52.556;13.384;2023-05-23T08:41:45;8.50;;;6.17;;
10162;SDS011;5123;52.556;13.384;2023-05-23T08:44:18;10.70;;;6.40;;
10162;SDS011;5123;52.556;13.384;2023-05-23T08:46:51;7.77;;;7.07;;
10162;SDS011;5123;52.556;13.384;2023-05-23T08:49:24;7.50;;;6.70;;
10162;SDS011;5123;52.556;13.384;2023-05-23T08:51:59;8.10;;;6.90;;
10162;SDS011;5123;52.556;13.384;2023-05-23T08:54:34;7.70;;;7.00;;
10162;SDS011;5123;52.556;13.384;2023-05-23T08:57:11;7.50;;;6.20;;
10162;SDS011;5123;52.556;13.384;2023-05-23T08:59:44;7.27;;;5.97;;
10162;SDS011;5123;52.556;13.384;2023-05-23T09:02:18;9.97;;;7.07;;
10162;SDS011;5123;52.556;13.384;2023-05-23T09:04:51;9.67;;;7.23;;
10162;SDS011;5123;52.556;13.384;2023-05-23T09:07:23;7.47;;;6.17;;
10162;SDS011;5123;52.556;13.384;2023-05-23T09:09:58;8.30;;;6.40;;
10162;SDS011;5123;52.556;13.384;2023-05-23T09:12:30;8.30;;;6.60;;
10162;SDS011;5123;52.556;13.384;2023-05-23T09:15:04;9.40;;;6.57;;
10162;SDS011;5123;52.556;13.384;2023-05-23T09:17:37;9.17;;;7.40;;
10162;SDS011;5123;52.556;13.384;2023-05-23T09:20:16;8.20;;;6.70;;
10162;SDS011;5123;52.556;13.384;2023-05-23T09:22:50;7.40;;;6.57;;
10162;SDS011;5123;52.556;13.384;2023-05-23T09:25:24;9.37;;;6.57;;
10162;SDS011;5123;52.556;13.384;2023-05-23T09:27:59;7.60;;;6.67;;
10162;SDS011;5123;52.556;13.384;2023-05-23T09:30:32;7.17;;;6.57;;
10162;SDS011;5123;52.556;13.384;2023-05-23T09:33:06;8.73;;;6.80;;
10162;SDS011;5123;52.556;13.384;2023-05-23T09:35:42;7.33;;;6.60;;
10162;SDS011;5123;52.556;13.384;2023-05-23T09:38:15;8.13;;;7.33;;
10162;SDS011;5123;52.556;13.384;2023-05-23T09:40:53;9.80;;;8.17;;
10162;SDS011;5123;52.556;13.384;2023-05-23T09:43:27;8.23;;;7.53;;
10162;SDS011;5123;52.556;13.384;2023-05-23T09:46:00;8.73;;;7.93;;
10162;SDS011;5123;52.556;13.384;2023-05-23T09:48:33;8.30;;;7.60;;
10162;SDS011;5123;52.556;13.384;2023-05-23T09:51:07;8.60;;;7.80;;
10162;SDS011;5123;52.556;13.384;2023-05-23T09:53:40;8.90;;;7.97;;
10162;SDS011;5123;52.556;13.384;2023-05-23T09:56:16;8.60;;;7.33;;
10162;SDS011;5123;52.556;13.384;2023-05-23T09:58:49;8.77;;;6.70;;
10162;SDS011;5123;52.556;13.384;2023-05-23T10:01:22;12.73;;;7.63;;
10162;SDS011;5123;52.556;13.384;2023-05-23T10:03:56;9.20;;;7.57;;
10162;SDS011;5123;52.556;13.384;2023-05-23T10:06:31;10.47;;;7.87;;
10162;SDS011;5123;52.556;13.384;2023-05-23T10:09:06;10.33;;;7.50;;
10162;SDS011;5123;52.556;13.384;2023-05-23T10:12:12;9.17;;;7.50;;
10162;SDS011;5123;52.556;13.384;2023-05-23T10:14:49;7.80;;;7.00;;
10162;SDS011;5123;52.556;13.384;2023-05-23T10:17:26;7.23;;;6.50;;
10162;SDS011;5123;52.556;13.384;2023-05-23T10:20:03;6.73;;;6.13;;
10162;SDS011;5123;52.556;13.384;2023-05-23T10:22:42;7.40;;;6.70;;
10162;SDS011;5123;52.556;13.384;2023-05-23T10:25:15;8.53;;;6.50;;
10162;SDS011;5123;52.556;13.384;2023-05-23T10:27:59;9.60;;;6.93;;
10162;SDS011;5123;52.556;13.384;2023-05-23T10:30:35;9.40;;;6.77;;
10162;SDS011;5123;52.556;13.384;2023-05-23T10:33:08;8.47;;;7.37;;
10162;SDS011;5123;52.556;13.384;2023-05-23T10:35:46;9.77;;;7.40;;
10162;SDS011;5123;52.556;13.384;2023-05-23T10:38:30;8.90;;;8.00;;
10162;SDS011;5123;52.556;13.384;2023-05-23T10:41:06;10.40;;;7.23;;
10162;SDS011;5123;52.556;13.384;2023-05-23T10:43:43;8.23;;;7.43;;
10162;SDS011;5123;52.556;13.384;2023-05-23T10:46:18;8.03;;;7.33;;
10162;SDS011;5123;52.556;13.384;2023-05-23T10:48:53;9.97;;;9.00;;
10162;SDS011;5123;52.556;13.384;2023-05-23T10:51:27;11.87;;;10.67;;
10162;SDS011;5123;52.556;13.384;2023-05-23T10:54:09;10.43;;;9.47;;
10162;SDS011;5123;52.556;13.384;2023-05-23T10:56:42;13.10;;;10.80;;
10162;SDS011;5123;52.556;13.384;2023-05-23T10:59:22;12.77;;;11.40;;
10162;SDS011;5123;52.556;13.384;2023-05-23T11:01:59;12.27;;;11.07;;
10162;SDS011;5123;52.556;13.384;2023-05-23T11:04:32;12.93;;;11.80;;
10162;SDS011;5123;52.556;13.384;2023-05-23T11:07:08;13.60;;;12.13;;
10162;SDS011;5123;52.556;13.384;2023-05-23T11:10:08;14.60;;;13.10;;
10162;SDS011;5123;52.556;13.384;2023-05-23T11:12:42;15.23;;;13.77;;
10162;SDS011;5123;52.556;13.384;2023-05-23T11:15:20;14.73;;;13.33;;
10162;SDS011;5123;52.556;13.384;2023-05-23T11:17:55;15.13;;;13.53;;
10162;SDS011;5123;52.556;13.384;2023-05-23T11:20:28;14.67;;;13.00;;
10162;SDS011;5123;52.556;13.384;2023-05-23T11:23:02;15.40;;;13.83;;
10162;SDS011;5123;52.556;13.384;2023-05-23T11:25:41;15.57;;;13.97;;
10162;SDS011;5123;52.556;13.384;2023-05-23T11:28:17;15.13;;;13.53;;
10162;SDS011;5123;52.556;13.384;2023-05-23T11:30:51;17.67;;;15.77;;
10162;SDS011;5123;52.556;13.384;2023-05-23T11:33:24;16.20;;;14.10;;
10162;SDS011;5123;52.556;13.384;2023-05-23T11:35:57;21.37;;;16.27;;
10162;SDS011;5123;52.556;13.384;2023-05-23T11:38:30;19.30;;;17.20;;
10162;SDS011;5123;52.556;13.384;2023-05-23T11:41:03;18.20;;;16.30;;
10162;SDS011;5123;52.556;13.384;2023-05-23T11:43:36;18.23;;;15.43;;
10162;SDS011;5123;52.556;13.384;2023-05-23T11:46:10;18.90;;;15.20;;
10162;SDS011;5123;52.556;13.384;2023-05-23T11:48:44;19.23;;;17.13;;
10162;SDS011;5123;52.556;13.384;2023-05-23T11:51:16;19.60;;;17.10;;
10162;SDS011;5123;52.556;13.384;2023-05-23T11:53:50;19.20;;;16.63;;
10162;SDS011;5123;52.556;13.384;2023-05-23T11:56:22;19.60;;;17.47;;
10162;SDS011;5123;52.556;13.384;2023-05-23T11:58:55;20.67;;;17.50;;
10162;SDS011;5123;52.556;13.384;2023-05-23T12:01:35;23.47;;;17.53;;
10162;SDS011;5123;52.556;13.384;2023-05-23T12:04:08;21.40;;;17.67;;
10162;SDS011;5123;52.556;13.384;2023-05-23T12:06:44;20.60;;;17.60;;
10162;SDS011;5123;52.556;13.384;2023-05-23T12:09:17;19.00;;;15.80;;
10162;SDS011;5123;52.556;13.384;2023-05-23T12:11:50;18.93;;;16.07;;
10162;SDS011;5123;52.556;13.384;2023-05-23T12:14:27;21.00;;;16.97;;
10162;SDS011;5123;52.556;13.384;2023-05-23T12:17:03;24.60;;;16.77;;
10162;SDS011;5123;52.556;13.384;2023-05-23T12:19:37;20.20;;;17.17;;
10162;SDS011;5123;52.556;13.384;2023-05-23T12:22:10;18.67;;;16.53;;
10162;SDS011;5123;52.556;13.384;2023-05-23T12:24:44;18.80;;;16.80;;
10162;SDS011;5123;52.556;13.384;2023-05-23T12:27:17;19.23;;;17.13;;
10162;SDS011;5123;52.556;13.384;2023-05-23T12:29:50;21.40;;;17.63;;
10162;SDS011;5123;52.556;13.384;2023-05-23T12:32:24;17.73;;;15.93;;
10162;SDS011;5123;52.556;13.384;2023-05-23T12:34:57;18.37;;;16.43;;
10162;SDS011;5123;52.556;13.384;2023-05-23T12:37:30;19.83;;;17.73;;
10162;SDS011;5123;52.556;13.384;2023-05-23T12:40:12;21.53;;;17.07;;
10162;SDS011;5123;52.556;13.384;2023-05-23T12:42:48;19.10;;;17.03;;
10162;SDS011;5123;52.556;13.384;2023-05-23T12:45:30;18.40;;;16.60;;
10162;SDS011;5123;52.556;13.384;2023-05-23T12:48:04;19.80;;;17.63;;
10162;SDS011;5123;52.556;13.384;2023-05-23T12:50:39;20.20;;;16.87;;
10162;SDS011;5123;52.556;13.384;2023-05-23T12:53:12;23.10;;;17.60;;
10162;SDS011;5123;52.556;13.384;2023-05-23T12:55:44;19.03;;;16.00;;
10162;SDS011;5123;52.556;13.384;2023-05-23T12:58:17;17.37;;;15.57;;
10162;SDS011;5123;52.556;13.384;2023-05-23T13:00:50;19.33;;;15.17;;
10162;SDS011;5123;52.556;13.384;2023-05-23T13:03:25;16.80;;;15.10;;
10162;SDS011;5123;52.556;13.384;2023-05-23T13:05:58;15.57;;;13.87;;
10162;SDS011;5123;52.556;13.384;2023-05-23T13:08:32;18.40;;;16.60;;
10162;SDS011;5123;52.556;13.384;2023-05-23T13:11:04;17.83;;;16.03;;
10162;SDS011;5123;52.556;13.384;2023-05-23T13:13:37;18.90;;;16.53;;
10162;SDS011;5123;52.556;13.384;2023-05-23T13:16:10;18.93;;;15.97;;
10162;SDS011;5123;52.556;13.384;2023-05-23T13:18:46;19.77;;;16.70;;
10162;SDS011;5123;52.556;13.384;2023-05-23T13:21:20;15.50;;;13.83;;
10162;SDS011;5123;52.556;13.384;2023-05-23T13:23:53;22.47;;;17.63;;
10162;SDS011;5123;52.556;13.384;2023-05-23T13:26:26;20.10;;;17.70;;
10162;SDS011;5123;52.556;13.384;2023-05-23T13:28:59;23.57;;;17.37;;
10162;SDS011;5123;52.556;13.384;2023-05-23T13:31:31;20.23;;;17.97;;
10162;SDS011;5123;52.556;13.384;2023-05-23T13:34:06;20.60;;;17.53;;
10162;SDS011;5123;52.556;13.384;2023-05-23T13:36:38;20.03;;;17.40;;
10162;SDS011;5123;52.556;13.384;2023-05-23T13:39:11;22.97;;;19.47;;
10162;SDS011;5123;52.556;13.384;2023-05-23T13:41:44;21.20;;;17.47;;
10162;SDS011;5123;52.556;13.384;2023-05-23T13:44:17;25.80;;;20.00;;
10162;SDS011;5123;52.556;13.384;2023-05-23T13:46:50;22.77;;;18.97;;
10162;SDS011;5123;52.556;13.384;2023-05-23T13:49:24;21.57;;;17.23;;
10162;SDS011;5123;52.556;13.384;2023-05-23T13:51:57;21.37;;;17.13;;
10162;SDS011;5123;52.556;13.384;2023-05-23T13:54:29;21.03;;;16.90;;
10162;SDS011;5123;52.556;13.384;2023-05-23T13:57:02;21.63;;;16.73;;
10162;SDS011;5123;52.556;13.384;2023-05-23T13:59:35;23.60;;;17.17;;
10162;SDS011;5123;52.556;13.384;2023-05-23T14:02:13;23.97;;;18.00;;
10162;SDS011;5123;52.556;13.384;2023-05-23T14:04:47;23.33;;;17.27;;
10162;SDS011;5123;52.556;13.384;2023-05-23T14:07:20;23.87;;;19.43;;
10162;SDS011;5123;52.556;13.384;2023-05-23T14:09:53;24.90;;;20.23;;
10162;SDS011;5123;52.556;13.384;2023-05-23T14:12:26;25.90;;;20.83;;
10162;SDS011;5123;52.556;13.384;2023-05-23T14:14:59;23.00;;;18.63;;
10162;SDS011;5123;52.556;13.384;2023-05-23T14:17:32;24.77;;;19.80;;
10162;SDS011;5123;52.556;13.384;2023-05-23T14:20:06;25.00;;;19.07;;
10162;SDS011;5123;52.556;13.384;2023-05-23T14:22:40;21.97;;;18.20;;
10162;SDS011;5123;52.556;13.384;2023-05-23T14:25:12;20.60;;;16.53;;
10162;SDS011;5123;52.556;13.384;2023-05-23T14:27:45;23.53;;;18.53;;
10162;SDS011;5123;52.556;13.384;2023-05-23T14:30:18;19.60;;;16.53;;
10162;SDS011;5123;52.556;13.384;2023-05-23T14:32:51;20.40;;;15.80;;
10162;SDS011;5123;52.556;13.384;2023-05-23T14:35:25;19.10;;;15.73;;
10162;SDS011;5123;52.556;13.384;2023-05-23T14:37:59;21.33;;;16.60;;
10162;SDS011;5123;52.556;13.384;2023-05-23T14:40:32;19.67;;;16.87;;
10162;SDS011;5123;52.556;13.384;2023-05-23T14:43:05;18.63;;;15.90;;
10162;SDS011;5123;52.556;13.384;2023-05-23T14:45:38;19.17;;;15.50;;
10162;SDS011;5123;52.556;13.384;2023-05-23T14:48:11;19.07;;;16.80;;
10162;SDS011;5123;52.556;13.384;2023-05-23T14:50:45;21.10;;;15.20;;
10162;SDS011;5123;52.556;13.384;2023-05-23T14:53:18;19.23;;;16.40;;
10162;SDS011;5123;52.556;13.384;2023-05-23T14:55:54;16.37;;;14.63;;
10162;SDS011;5123;52.556;13.384;2023-05-23T14:58:30;17.17;;;13.63;;
10162;SDS011;5123;52.556;13.384;2023-05-23T15:01:03;13.00;;;11.63;;
10162;SDS011;5123;52.556;13.384;2023-05-23T15:03:35;11.50;;;10.00;;
10162;SDS011;5123;52.556;13.384;2023-05-23T15:06:10;11.77;;;10.57;;
10162;SDS011;5123;52.556;13.384;2023-05-23T15:08:42;12.13;;;9.87;;
10162;SDS011;5123;52.556;13.384;2023-05-23T15:11:17;10.77;;;8.93;;
10162;SDS011;5123;52.556;13.384;2023-05-23T15:13:58;6.57;;;5.93;;
10162;SDS011;5123;52.556;13.384;2023-05-23T15:16:31;9.17;;;8.27;;
10162;SDS011;5123;52.556;13.384;2023-05-23T15:19:08;9.43;;;7.27;;
10162;SDS011;5123;52.556;13.384;2023-05-23T15:21:42;9.80;;;8.20;;